Time;durP1;ratioP1;P1;durP2;ratioP2;P2;SDS_P1;SDS_P2;PMS_P1;PMS_P2;Temp;Humidity;BMP_temperature;BMP_pressure;BME280_temperature;BME280_humidity;BME280_pressure;Samples;Min_cycle;Max_cycle;Signal;HPM_P1;HPM_P2
2020/12/02 00:01:18;;;;;;;12.83;9.30;;;1.90;99.90;;;;;;5033417;28;20837;-90
2020/12/02 00:03:54;;;;;;;14.30;9.30;;;2.00;99.90;;;;;;5032598;28;20488;-90
2020/12/02 00:06:25;;;;;;;12.17;8.80;;;1.90;99.90;;;;;;5033562;28;20451;-91
2020/12/02 00:08:57;;;;;;;12.77;8.73;;;1.90;99.90;;;;;;5033447;28;20447;-91
2020/12/02 00:11:25;;;;;;;15.80;10.70;;;1.90;99.90;;;;;;5032792;28;20822;-89
2020/12/02 00:13:53;;;;;;;13.47;10.10;;;1.90;99.90;;;;;;5033104;28;20451;-90
2020/12/02 00:16:23;;;;;;;16.90;9.70;;;1.90;99.90;;;;;;5032748;28;20443;-90
2020/12/02 00:18:53;;;;;;;11.70;8.63;;;1.90;99.90;;;;;;5032605;28;20450;-90
2020/12/02 00:21:20;;;;;;;15.47;9.40;;;1.90;99.90;;;;;;5033579;28;20479;-90
2020/12/02 00:23:47;;;;;;;10.70;8.00;;;1.90;99.90;;;;;;5033356;28;20478;-89
2020/12/02 00:26:15;;;;;;;11.83;9.27;;;1.90;99.90;;;;;;5033460;28;20452;-89
2020/12/02 00:28:42;;;;;;;14.10;9.33;;;1.90;99.90;;;;;;5033213;28;20806;-93
2020/12/02 00:31:08;;;;;;;14.87;9.50;;;1.90;99.90;;;;;;5032562;28;20499;-88
2020/12/02 00:33:35;;;;;;;15.40;9.80;;;;;;;;;;5031576;28;20462;-89
2020/12/02 00:36:03;;;;;;;13.57;9.97;;;1.90;99.90;;;;;;5033259;28;20448;-89
2020/12/02 00:38:29;;;;;;;14.10;9.90;;;;;;;;;;5033186;28;20454;-89
2020/12/02 00:40:56;;;;;;;14.63;9.93;;;2.00;99.90;;;;;;5033190;28;20478;-88
2020/12/02 00:43:25;;;;;;;17.77;10.13;;;1.90;99.90;;;;;;5032885;28;20483;-90
2020/12/02 00:45:53;;;;;;;16.83;11.50;;;1.90;99.90;;;;;;5032891;28;20958;-87
2020/12/02 00:48:22;;;;;;;14.43;10.20;;;1.90;99.90;;;;;;5031913;28;20935;-90
2020/12/02 00:50:48;;;;;;;13.40;9.47;;;;;;;;;;5033184;28;20863;-91
2020/12/02 00:53:19;;;;;;;14.50;10.30;;;2.00;99.90;;;;;;5033274;28;20467;-90
2020/12/02 00:55:46;;;;;;;16.43;9.77;;;1.90;99.90;;;;;;5034286;28;20544;-89
2020/12/02 00:58:21;;;;;;;13.60;9.03;;;2.00;99.90;;;;;;5033145;28;20451;-89
2020/12/02 01:00:48;;;;;;;15.37;9.90;;;4.20;99.90;;;;;;5032839;28;20497;-91
2020/12/02 01:03:22;;;;;;;15.20;8.93;;;2.00;99.90;;;;;;5035663;28;20455;-90
2020/12/02 01:05:49;;;;;;;17.77;10.30;;;;;;;;;;5036853;28;20473;-92
2020/12/02 01:08:24;;;;;;;30.00;11.10;;;1.90;99.90;;;;;;5024672;28;20462;-93
2020/12/02 01:10:59;;;;;;;29.47;11.30;;;2.00;99.90;;;;;;5035654;28;20947;-88
2020/12/02 01:13:26;;;;;;;53.53;11.83;;;;;;;;;;5036870;28;20452;-88
2020/12/02 01:15:59;;;;;;;102.50;12.00;;;2.00;99.90;;;;;;5039443;28;20455;-94
2020/12/02 01:18:27;;;;;;;92.17;11.70;;;2.00;99.90;;;;;;5034145;28;20450;-88
2020/12/02 01:21:05;;;;;;;64.93;12.93;;;2.00;99.90;;;;;;5035765;28;20486;-89
2020/12/02 01:23:33;;;;;;;89.87;11.93;;;2.60;99.90;;;;;;5036167;28;20463;-89
2020/12/02 01:26:00;;;;;;;116.57;13.47;;;;;;;;;;5035545;28;20450;-88
2020/12/02 01:28:29;;;;;;;68.17;11.03;;;1.90;99.90;;;;;;5035587;28;20547;-90
2020/12/02 01:30:58;;;;;;;67.60;13.30;;;1.90;99.90;;;;;;5035347;28;20448;-89
2020/12/02 01:33:25;;;;;;;80.67;16.23;;;1.90;99.90;;;;;;5034312;28;20966;-89
2020/12/02 01:35:56;;;;;;;112.93;16.17;;;1.80;99.90;;;;;;5035534;28;20451;-89
2020/12/02 01:38:28;;;;;;;111.10;13.63;;;1.90;99.90;;;;;;5035193;28;20887;-90
2020/12/02 01:40:57;;;;;;;116.13;13.47;;;1.80;99.90;;;;;;5034972;28;20479;-89
2020/12/02 01:43:26;;;;;;;131.30;16.03;;;1.90;99.90;;;;;;5034645;28;20499;-89
2020/12/02 01:45:59;;;;;;;127.03;16.47;;;1.80;99.90;;;;;;5035327;28;20873;-90
2020/12/02 01:48:44;;;;;;;119.60;16.27;;;1.80;99.90;;;;;;5039938;28;20455;-88
2020/12/02 01:51:22;;;;;;;179.23;15.20;;;1.90;99.90;;;;;;5036693;28;21045;-89
2020/12/02 01:53:55;;;;;;;147.17;13.50;;;1.80;99.90;;;;;;5036314;28;20444;-89
2020/12/02 01:56:33;;;;;;;109.97;15.03;;;1.80;99.90;;;;;;5034769;28;20439;-88
2020/12/02 01:59:08;;;;;;;144.70;15.43;;;1.80;99.90;;;;;;5035024;28;20526;-90
2020/12/02 02:01:52;;;;;;;267.50;21.40;;;1.70;99.90;;;;;;5034550;28;20494;-87
2020/12/02 02:04:21;;;;;;;183.40;15.73;;;1.80;99.90;;;;;;5034482;28;21036;-91
2020/12/02 02:07:02;;;;;;;356.87;21.03;;;1.80;99.90;;;;;;5034766;28;20447;-89
2020/12/02 02:09:30;;;;;;;162.93;14.03;;;1.50;99.90;;;;;;5034705;28;20461;-89
2020/12/02 02:12:17;;;;;;;90.00;12.63;;;1.80;99.90;;;;;;5034597;28;20481;-87
2020/12/02 02:14:50;;;;;;;171.33;16.33;;;1.70;99.90;;;;;;5021885;28;20544;-88
2020/12/02 02:17:16;;;;;;;168.67;15.20;;;1.80;99.90;;;;;;5034183;28;20447;-89
2020/12/02 02:19:43;;;;;;;122.83;14.83;;;;;;;;;;5032841;28;20455;-89
2020/12/02 02:22:12;;;;;;;271.67;20.27;;;1.70;99.90;;;;;;5034539;28;20494;-89
2020/12/02 02:24:38;;;;;;;89.83;16.13;;;;;;;;;;5032023;28;20459;-87
2020/12/02 02:27:06;;;;;;;145.60;14.37;;;1.80;99.90;;;;;;5034834;28;20448;-88
2020/12/02 02:29:36;;;;;;;20.00;11.90;;;1.70;99.90;;;;;;5034705;28;20450;-88
2020/12/02 02:32:08;;;;;;;89.83;15.10;;;2.20;99.90;;;;;;5034125;28;20458;-89
2020/12/02 02:34:37;;;;;;;59.17;14.30;;;1.50;99.90;;;;;;5033085;28;20453;-90
2020/12/02 02:37:06;;;;;;;36.03;12.67;;;2.40;99.90;;;;;;5034005;28;20458;-88
2020/12/02 02:39:33;;;;;;;70.70;13.70;;;1.20;99.90;;;;;;5033889;28;20536;-89
2020/12/02 02:42:01;;;;;;;166.23;16.87;;;1.70;99.90;;;;;;5033721;28;20995;-90
2020/12/02 02:44:29;;;;;;;92.17;13.80;;;1.80;99.90;;;;;;5033948;28;20443;-89
2020/12/02 02:46:55;;;;;;;83.77;15.60;;;1.80;99.90;;;;;;5034017;28;20432;-89
2020/12/02 02:49:23;;;;;;;66.60;14.43;;;1.80;99.90;;;;;;5032722;28;20953;-87
2020/12/02 02:51:50;;;;;;;95.07;14.70;;;1.80;99.90;;;;;;5033918;28;20454;-88
2020/12/02 02:54:17;;;;;;;34.23;13.23;;;1.70;99.90;;;;;;5033641;28;20942;-90
2020/12/02 02:56:43;;;;;;;43.00;12.87;;;1.80;99.90;;;;;;5033896;28;20447;-92
2020/12/02 02:59:12;;;;;;;117.90;16.97;;;1.80;99.90;;;;;;5034270;28;20455;-89
2020/12/02 03:01:43;;;;;;;89.90;14.87;;;1.80;99.90;;;;;;5035258;28;20498;-89
2020/12/02 03:04:10;;;;;;;26.00;11.97;;;1.70;99.90;;;;;;5033795;28;20453;-93
2020/12/02 03:06:37;;;;;;;52.50;12.53;;;1.80;99.90;;;;;;5034373;28;20439;-89
2020/12/02 03:09:03;;;;;;;27.20;12.20;;;1.70;99.90;;;;;;5034456;28;20445;-89
2020/12/02 03:11:30;;;;;;;39.27;12.67;;;1.80;99.90;;;;;;5034653;28;20444;-89
2020/12/02 03:13:56;;;;;;;28.10;12.83;;;1.70;99.90;;;;;;5032152;28;20447;-94
2020/12/02 03:16:30;;;;;;;18.37;11.83;;;1.70;99.90;;;;;;5034509;28;20931;-93
2020/12/02 03:19:01;;;;;;;18.13;11.13;;;1.70;99.90;;;;;;5036851;28;20424;-89
2020/12/02 03:21:27;;;;;;;28.20;11.00;;;1.70;99.90;;;;;;5040864;28;20521;-90
2020/12/02 03:23:54;;;;;;;22.63;11.03;;;1.70;99.90;;;;;;5034258;28;20500;-95
2020/12/02 03:26:21;;;;;;;34.37;12.20;;;1.80;99.90;;;;;;5034864;28;20459;-88
2020/12/02 03:28:47;;;;;;;22.63;11.90;;;1.80;99.90;;;;;;5030288;28;20453;-90
2020/12/02 03:31:18;;;;;;;23.07;11.30;;;1.80;99.90;;;;;;5035000;28;20448;-88
2020/12/02 03:33:44;;;;;;;107.10;14.90;;;1.70;99.90;;;;;;5035280;28;20454;-90
2020/12/02 03:36:14;;;;;;;25.73;11.90;;;1.70;99.90;;;;;;5033565;28;20459;-90
2020/12/02 03:38:41;;;;;;;24.40;12.10;;;1.60;99.90;;;;;;5033403;28;20458;-89
2020/12/02 03:41:08;;;;;;;54.40;14.20;;;1.70;99.90;;;;;;5033800;28;20482;-91
2020/12/02 03:43:34;;;;;;;35.47;12.57;;;1.70;99.90;;;;;;5033456;28;20483;-90
2020/12/02 03:46:01;;;;;;;16.53;10.80;;;1.70;99.90;;;;;;5034202;28;20439;-91
2020/12/02 03:48:27;;;;;;;76.53;14.00;;;1.70;99.90;;;;;;5032895;28;21064;-95
2020/12/02 03:50:53;;;;;;;31.47;11.57;;;1.60;99.90;;;;;;5033523;28;20433;-94
2020/12/02 03:53:20;;;;;;;22.97;11.80;;;1.70;99.90;;;;;;5033960;28;20457;-91
2020/12/02 03:55:48;;;;;;;14.63;10.67;;;1.70;99.90;;;;;;5029904;28;20450;-94
2020/12/02 03:58:14;;;;;;;22.07;11.50;;;1.70;99.90;;;;;;5034157;28;20452;-95
2020/12/02 04:00:40;;;;;;;36.00;11.67;;;1.70;99.90;;;;;;5033790;28;20447;-92
2020/12/02 04:03:07;;;;;;;19.23;11.57;;;1.70;99.90;;;;;;5033205;28;20460;-94
2020/12/02 04:05:34;;;;;;;18.87;10.80;;;1.70;99.90;;;;;;5034017;28;20444;-91
2020/12/02 04:08:01;;;;;;;19.50;11.40;;;1.70;99.90;;;;;;5033761;28;20910;-95
2020/12/02 04:10:28;;;;;;;18.00;12.10;;;1.80;99.90;;;;;;5033793;28;20456;-95
2020/12/02 04:12:55;;;;;;;40.47;13.23;;;1.80;99.90;;;;;;5033667;28;20954;-95
2020/12/02 04:15:22;;;;;;;27.40;12.10;;;1.70;99.90;;;;;;5033435;28;20452;-91
2020/12/02 04:17:49;;;;;;;19.70;11.40;;;1.70;99.90;;;;;;5033302;28;20444;-88
2020/12/02 04:20:17;;;;;;;16.07;10.70;;;1.70;99.90;;;;;;5032779;28;20524;-88
2020/12/02 04:22:44;;;;;;;17.70;10.60;;;1.70;99.90;;;;;;5033093;28;20499;-87
2020/12/02 04:25:10;;;;;;;20.50;12.27;;;1.70;99.90;;;;;;5033343;28;20445;-87
2020/12/02 04:27:38;;;;;;;17.00;11.57;;;1.80;99.90;;;;;;5030966;28;20451;-90
2020/12/02 04:30:05;;;;;;;16.97;11.80;;;1.80;99.90;;;;;;5032951;28;20476;-92
2020/12/02 04:32:31;;;;;;;19.00;11.53;;;1.80;99.90;;;;;;5033511;28;20508;-95
2020/12/02 04:35:01;;;;;;;19.93;12.17;;;1.80;99.90;;;;;;5030402;28;20445;-89
2020/12/02 04:37:29;;;;;;;15.80;11.00;;;1.80;99.90;;;;;;5033380;28;21025;-95
2020/12/02 04:39:56;;;;;;;19.57;12.00;;;1.80;99.90;;;;;;5034966;28;20450;-93
2020/12/02 04:42:27;;;;;;;17.83;12.23;;;1.80;99.90;;;;;;5038089;28;20511;-91
2020/12/02 04:44:54;;;;;;;22.73;12.60;;;1.70;99.90;;;;;;5037707;28;20821;-92
2020/12/02 04:47:21;;;;;;;17.53;12.33;;;;;;;;;;5037708;28;20458;-90
2020/12/02 04:49:47;;;;;;;20.17;12.63;;;1.80;99.90;;;;;;5046727;28;20460;-91
2020/12/02 04:52:15;;;;;;;17.40;12.93;;;1.80;99.90;;;;;;5038191;28;20914;-95
2020/12/02 04:54:42;;;;;;;18.53;12.60;;;1.80;99.90;;;;;;5038208;28;20455;-94
2020/12/02 04:57:09;;;;;;;17.23;11.40;;;1.80;99.90;;;;;;5037878;28;20447;-94
2020/12/02 04:59:39;;;;;;;18.60;11.33;;;1.80;99.90;;;;;;5037575;28;20454;-95
2020/12/02 05:02:06;;;;;;;21.90;12.63;;;1.90;99.90;;;;;;5037265;28;20577;-90
2020/12/02 05:04:33;;;;;;;20.20;12.17;;;1.80;99.90;;;;;;5016279;28;20794;-95
2020/12/02 05:07:15;;;;;;;21.13;12.83;;;1.80;99.90;;;;;;5016161;28;20456;-90
2020/12/02 05:09:59;;;;;;;21.93;12.73;;;1.80;99.90;;;;;;5016174;28;20990;-90
2020/12/02 05:12:28;;;;;;;17.80;11.40;;;1.80;99.90;;;;;;5015483;28;20449;-94
2020/12/02 05:15:07;;;;;;;22.83;12.77;;;1.80;99.90;;;;;;5015453;28;20444;-90
2020/12/02 05:17:35;;;;;;;18.90;12.03;;;1.80;99.90;;;;;;5013628;28;20472;-90
2020/12/02 05:20:10;;;;;;;19.87;13.53;;;1.80;99.90;;;;;;5009464;28;20473;-90
2020/12/02 05:22:38;;;;;;;21.23;12.70;;;1.80;99.90;;;;;;5025713;28;20992;-90
2020/12/02 05:25:07;;;;;;;18.70;12.13;;;1.80;99.90;;;;;;5032975;28;20453;-93
2020/12/02 05:27:36;;;;;;;20.60;13.83;;;1.80;99.90;;;;;;5037639;28;20953;-89
2020/12/02 05:30:26;;;;;;;23.10;13.50;;;1.80;99.90;;;;;;5037444;28;20452;-90
2020/12/02 05:33:20;;;;;;;21.40;12.90;;;1.90;99.90;;;;;;5034662;28;20946;-93
2020/12/02 05:35:50;;;;;;;17.53;11.00;;;1.80;99.90;;;;;;5037317;28;20446;-94
2020/12/02 05:38:32;;;;;;;17.03;12.60;;;1.80;99.90;;;;;;5036968;28;20473;-91
2020/12/02 05:41:00;;;;;;;19.50;12.03;;;1.80;99.90;;;;;;5036431;28;20474;-91
2020/12/02 05:43:36;;;;;;;18.83;12.00;;;1.80;99.90;;;;;;5036075;28;20474;-90
2020/12/02 05:46:03;;;;;;;23.33;13.87;;;1.80;99.90;;;;;;5035979;28;20469;-89
2020/12/02 05:48:35;;;;;;;16.50;11.40;;;1.80;99.90;;;;;;5032359;28;20465;-95
2020/12/02 05:51:02;;;;;;;15.57;11.80;;;1.80;99.90;;;;;;5043532;28;20446;-92
2020/12/02 05:53:32;;;;;;;19.63;12.60;;;1.80;99.90;;;;;;5044870;28;20450;-89
2020/12/02 05:55:59;;;;;;;21.80;12.77;;;1.80;99.90;;;;;;5036423;28;20438;-90
2020/12/02 05:58:27;;;;;;;19.73;11.97;;;1.80;99.90;;;;;;5036687;28;20443;-90
2020/12/02 06:00:54;;;;;;;22.23;12.37;;;1.80;99.90;;;;;;5036399;28;20449;-89
2020/12/02 06:03:32;;;;;;;14.67;10.47;;;1.90;99.90;;;;;;5034922;28;20946;-90
2020/12/02 06:06:00;;;;;;;16.50;10.93;;;1.80;99.90;;;;;;5037029;28;20441;-89
2020/12/02 06:08:35;;;;;;;18.03;11.90;;;1.80;99.90;;;;;;5040234;28;20806;-89
2020/12/02 06:11:24;;;;;;;17.67;11.63;;;1.80;99.90;;;;;;5037746;28;20438;-94
2020/12/02 06:13:53;;;;;;;17.47;10.80;;;1.90;99.90;;;;;;5037537;28;20460;-89
2020/12/02 06:16:36;;;;;;;18.17;11.07;;;1.80;99.90;;;;;;5032306;28;20790;-87
2020/12/02 06:19:13;;;;;;;15.73;9.87;;;1.80;99.90;;;;;;5043422;28;20475;-88
2020/12/02 06:21:42;;;;;;;17.33;10.50;;;1.80;99.90;;;;;;5038027;28;20488;-92
2020/12/02 06:24:10;;;;;;;16.67;8.90;;;1.80;99.90;;;;;;5034997;28;20506;-88
2020/12/02 06:26:38;;;;;;;17.80;11.77;;;1.70;99.90;;;;;;5035142;28;20459;-89
2020/12/02 06:29:05;;;;;;;17.47;10.60;;;1.80;99.90;;;;;;5034658;28;20455;-90
2020/12/02 06:31:32;;;;;;;15.63;9.70;;;1.80;99.90;;;;;;5035727;28;20463;-90
2020/12/02 06:34:05;;;;;;;15.30;8.47;;;1.80;99.90;;;;;;5034837;28;20459;-90
2020/12/02 06:36:35;;;;;;;18.43;11.03;;;1.70;99.90;;;;;;5035241;28;20447;-88
2020/12/02 06:39:22;;;;;;;17.60;9.73;;;1.80;99.90;;;;;;5034895;28;20544;-89
2020/12/02 06:41:48;;;;;;;18.17;10.93;;;1.80;99.90;;;;;;5035984;28;20531;-91
2020/12/02 06:44:36;;;;;;;18.27;10.40;;;1.70;99.90;;;;;;5032405;28;20458;-89
2020/12/02 06:47:19;;;;;;;17.60;9.87;;;1.70;99.90;;;;;;5032588;28;20509;-89
2020/12/02 06:49:49;;;;;;;15.83;9.60;;;1.70;99.90;;;;;;5033521;28;20825;-88
2020/12/02 06:52:35;;;;;;;18.23;9.57;;;1.70;99.90;;;;;;5032670;28;20446;-90
2020/12/02 06:55:11;;;;;;;17.33;10.27;;;1.80;99.90;;;;;;5034572;28;20957;-89
2020/12/02 06:57:38;;;;;;;16.67;11.00;;;1.80;99.90;;;;;;5034516;28;20438;-88
2020/12/02 07:00:07;;;;;;;21.90;11.20;;;1.80;99.90;;;;;;5033776;28;20451;-89
2020/12/02 07:02:42;;;;;;;17.07;10.23;;;1.90;99.90;;;;;;5036162;28;20523;-90
2020/12/02 07:05:18;;;;;;;19.97;10.97;;;2.00;99.90;;;;;;5035025;28;20466;-89
2020/12/02 07:07:45;;;;;;;20.27;10.10;;;2.00;99.90;;;;;;5035500;28;20445;-89
2020/12/02 07:10:17;;;;;;;17.93;10.90;;;1.70;99.90;;;;;;5035122;28;20460;-90
2020/12/02 07:12:44;;;;;;;17.27;9.90;;;1.70;99.90;;;;;;5035191;28;20444;-92
2020/12/02 07:15:13;;;;;;;15.83;9.60;;;1.80;99.90;;;;;;5032818;28;20443;-88
2020/12/02 07:17:40;;;;;;;15.20;9.67;;;1.70;99.90;;;;;;5035812;28;20444;-90
2020/12/02 07:20:13;;;;;;;19.53;10.57;;;1.60;99.90;;;;;;5034981;28;20455;-91
2020/12/02 07:22:46;;;;;;;17.63;10.00;;;1.70;99.90;;;;;;5033292;28;20493;-91
2020/12/02 07:25:12;;;;;;;9.10;5.30;;;1.50;99.90;;;;;;5037154;28;20463;-90
2020/12/02 07:27:45;;;;;;;20.13;10.67;;;1.60;99.90;;;;;;5032144;28;20452;-89
2020/12/02 07:30:30;;;;;;;14.83;8.63;;;1.70;99.90;;;;;;5034932;28;20508;-90
2020/12/02 07:33:08;;;;;;;26.50;10.57;;;1.70;99.90;;;;;;5036129;28;20550;-87
2020/12/02 07:35:34;;;;;;;15.13;9.80;;;1.70;99.90;;;;;;5036575;28;20947;-89
2020/12/02 07:38:08;;;;;;;21.13;11.50;;;1.60;99.90;;;;;;5036459;28;20456;-91
2020/12/02 07:40:37;;;;;;;13.77;7.50;;;1.60;99.90;;;;;;5037120;28;20527;-89
2020/12/02 07:43:12;;;;;;;18.70;9.63;;;1.70;99.90;;;;;;5036601;28;20512;-92
2020/12/02 07:45:39;;;;;;;19.40;11.50;;;;;;;;;;5038069;28;20452;-90
2020/12/02 07:48:10;;;;;;;16.60;10.80;;;1.70;99.90;;;;;;5049522;28;20479;-90
2020/12/02 07:50:43;;;;;;;21.57;11.10;;;1.70;99.90;;;;;;5038109;28;20432;-92
2020/12/02 07:53:16;;;;;;;19.30;11.77;;;1.60;99.90;;;;;;5036316;28;20526;-92
2020/12/02 07:55:46;;;;;;;17.80;10.50;;;1.70;99.90;;;;;;5033324;28;20467;-91
2020/12/02 07:58:14;;;;;;;19.90;10.97;;;1.40;99.90;;;;;;5036467;28;20432;-91
2020/12/02 08:00:43;;;;;;;21.10;12.10;;;1.60;99.90;;;;;;5038336;28;20460;-91
2020/12/02 08:03:30;;;;;;;17.47;11.63;;;1.70;99.90;;;;;;5035895;28;20482;-92
2020/12/02 08:06:08;;;;;;;20.13;11.17;;;1.60;99.90;;;;;;5040437;28;20480;-89
2020/12/02 08:08:35;;;;;;;19.93;10.97;;;1.80;99.90;;;;;;5047584;28;20449;-90
2020/12/02 08:11:08;;;;;;;17.50;10.97;;;1.70;99.90;;;;;;5039037;28;20449;-92
2020/12/02 08:13:46;;;;;;;20.37;11.93;;;1.80;99.90;;;;;;5037748;28;20451;-92
2020/12/02 08:16:22;;;;;;;16.83;10.53;;;1.80;99.90;;;;;;5043497;28;20454;-89
2020/12/02 08:18:51;;;;;;;16.60;8.70;;;1.80;99.90;;;;;;5043784;28;20450;-90
2020/12/02 08:21:19;;;;;;;15.13;7.27;;;1.80;99.90;;;;;;5040788;28;20466;-91
2020/12/02 08:24:02;;;;;;;21.40;10.93;;;1.80;99.90;;;;;;5042738;28;20452;-91
2020/12/02 08:26:30;;;;;;;21.00;11.00;;;1.80;99.90;;;;;;5039966;28;20440;-93
2020/12/02 08:29:06;;;;;;;17.77;10.40;;;1.80;99.90;;;;;;5040304;28;20457;-92
2020/12/02 08:31:35;;;;;;;20.37;11.60;;;1.80;99.90;;;;;;5037802;28;20514;-91
2020/12/02 08:34:14;;;;;;;16.53;10.53;;;1.80;99.90;;;;;;5039429;28;20467;-93
2020/12/02 08:36:42;;;;;;;22.00;10.43;;;1.80;99.90;;;;;;5039674;28;20459;-90
2020/12/02 08:39:09;;;;;;;17.93;10.87;;;;;;;;;;5040457;28;20450;-91
2020/12/02 08:41:45;;;;;;;17.90;11.47;;;1.90;99.90;;;;;;5040137;28;20853;-90
2020/12/02 08:44:14;;;;;;;24.03;13.07;;;1.80;99.90;;;;;;5041198;28;20794;-89
2020/12/02 08:46:52;;;;;;;20.40;12.03;;;1.80;99.90;;;;;;5046691;28;20530;-91
2020/12/02 08:49:20;;;;;;;20.80;11.63;;;1.80;99.90;;;;;;5063401;28;20480;-91
2020/12/02 08:51:47;;;;;;;21.73;12.30;;;1.80;99.90;;;;;;5063009;28;20440;-91
2020/12/02 08:54:15;;;;;;;20.77;10.97;;;1.70;99.90;;;;;;5067533;28;20465;-90
2020/12/02 08:56:42;;;;;;;21.43;11.47;;;1.70;99.90;;;;;;5067448;28;20807;-92
2020/12/02 08:59:12;;;;;;;22.70;14.07;;;1.80;99.90;;;;;;5060682;28;20958;-90
2020/12/02 09:01:39;;;;;;;13.80;8.80;;;1.80;99.90;;;;;;5060372;28;20481;-90
2020/12/02 09:04:05;;;;;;;16.27;10.27;;;1.80;99.90;;;;;;5059547;28;20453;-92
2020/12/02 09:06:32;;;;;;;17.63;10.33;;;1.80;99.90;;;;;;5057827;28;20465;-94
2020/12/02 09:08:58;;;;;;;23.20;10.70;;;1.80;99.90;;;;;;5061661;28;20456;-91
2020/12/02 09:11:27;;;;;;;19.93;10.00;;;1.80;99.90;;;;;;5059106;28;20437;-93
2020/12/02 09:13:55;;;;;;;15.00;9.73;;;1.80;99.90;;;;;;5058235;28;20434;-93
2020/12/02 09:16:28;;;;;;;14.03;9.10;;;1.70;99.90;;;;;;5060952;28;20437;-91
2020/12/02 09:18:56;;;;;;;20.17;10.57;;;1.70;99.90;;;;;;5071016;28;20459;-93
2020/12/02 09:21:23;;;;;;;21.43;9.57;;;1.70;99.90;;;;;;5056193;28;20955;-91
2020/12/02 09:23:49;;;;;;;17.73;9.90;;;1.70;99.90;;;;;;5057894;28;20442;-91
2020/12/02 09:26:18;;;;;;;15.07;9.47;;;1.70;99.90;;;;;;5058909;28;20941;-89
2020/12/02 09:28:44;;;;;;;15.70;9.47;;;1.50;99.90;;;;;;5058026;28;20443;-90
2020/12/02 09:31:12;;;;;;;14.70;9.70;;;1.60;99.90;;;;;;5057267;28;20523;-93
2020/12/02 09:33:38;;;;;;;16.23;8.73;;;1.60;99.90;;;;;;5055553;28;20446;-89
2020/12/02 09:36:04;;;;;;;17.97;9.40;;;1.50;99.90;;;;;;5056943;28;20943;-90
2020/12/02 09:38:31;;;;;;;13.90;9.40;;;1.50;99.90;;;;;;5056351;28;20438;-91
2020/12/02 09:41:15;;;;;;;17.90;9.37;;;1.50;99.90;;;;;;5056706;28;20806;-90
2020/12/02 09:44:09;;;;;;;13.10;8.80;;;1.40;99.90;;;;;;5056260;28;20917;-93
2020/12/02 09:46:37;;;;;;;14.03;8.17;;;1.50;99.90;;;;;;5056190;28;20476;-91
2020/12/02 09:49:05;;;;;;;14.53;8.40;;;1.70;99.90;;;;;;5055240;28;20456;-92
2020/12/02 09:51:33;;;;;;;14.20;8.90;;;1.60;99.90;;;;;;5056917;28;20454;-92
2020/12/02 09:54:01;;;;;;;12.00;7.30;;;;;;;;;;5056224;28;21041;-88
2020/12/02 09:56:28;;;;;;;12.60;7.60;;;1.70;99.90;;;;;;5055772;28;20454;-88
2020/12/02 09:58:57;;;;;;;12.90;7.90;;;1.70;99.90;;;;;;5054606;28;20533;-86
2020/12/02 10:01:30;;;;;;;12.90;7.80;;;1.70;99.90;;;;;;5054921;28;20436;-85
2020/12/02 10:04:25;;;;;;;9.60;6.33;;;1.80;99.90;;;;;;5053498;28;21116;-86
2020/12/02 10:07:12;;;;;;;8.83;6.60;;;1.80;99.90;;;;;;5054666;28;20444;-87
2020/12/02 10:10:18;;;;;;;10.00;6.70;;;1.80;99.90;;;;;;5054984;28;20943;-89
2020/12/02 10:12:55;;;;;;;10.47;7.10;;;1.80;99.90;;;;;;5055197;28;20457;-89
2020/12/02 10:15:36;;;;;;;11.23;6.33;;;1.80;99.90;;;;;;5055037;28;20443;-88
2020/12/02 10:18:47;;;;;;;10.77;7.30;;;1.90;99.90;;;;;;5049111;28;20444;-88
2020/12/02 10:21:34;;;;;;;12.13;6.80;;;1.80;99.90;;;;;;5055085;28;20452;-89
2020/12/02 10:24:11;;;;;;;12.07;6.27;;;1.90;99.90;;;;;;5055860;28;20459;-90
2020/12/02 10:27:23;;;;;;;10.07;6.67;;;1.90;99.90;;;;;;5060179;28;20465;-88
2020/12/02 10:30:02;;;;;;;9.10;6.47;;;2.00;99.90;;;;;;5056629;28;20816;-91
2020/12/02 10:32:57;;;;;;;10.90;7.07;;;2.00;99.90;;;;;;5051118;28;20450;-90
2020/12/02 10:35:24;;;;;;;8.87;5.63;;;2.00;99.90;;;;;;5050829;28;21080;-88
2020/12/02 10:37:55;;;;;;;8.77;6.83;;;2.10;99.90;;;;;;5033939;28;20447;-87
2020/12/02 10:40:22;;;;;;;10.30;6.43;;;2.00;99.90;;;;;;5033921;28;20920;-87
2020/12/02 10:42:58;;;;;;;9.90;6.50;;;1.90;99.90;;;;;;5032394;28;21037;-88
2020/12/02 10:45:25;;;;;;;11.33;7.03;;;1.90;99.90;;;;;;5035247;28;20446;-88
2020/12/02 10:48:21;;;;;;;10.20;6.53;;;2.00;99.90;;;;;;5041908;28;20447;-87
2020/12/02 10:50:49;;;;;;;11.33;8.10;;;2.00;99.90;;;;;;5034769;28;20517;-88
2020/12/02 10:53:20;;;;;;;8.63;6.53;;;1.90;99.90;;;;;;5032856;28;20840;-88
2020/12/02 10:55:47;;;;;;;12.67;7.50;;;1.90;99.90;;;;;;5033662;28;20448;-87
2020/12/02 10:58:18;;;;;;;12.10;7.90;;;2.10;99.90;;;;;;5033697;28;20454;-90
2020/12/02 11:00:47;;;;;;;15.87;8.90;;;2.00;99.90;;;;;;5033938;28;20530;-91
2020/12/02 11:03:21;;;;;;;15.93;9.70;;;2.00;99.90;;;;;;5037577;28;20516;-94
2020/12/02 11:08:38;;;;;;;16.03;9.80;;;2.10;99.90;;;;;;5078178;22;20470;-93
2020/12/02 11:11:20;;;;;;;18.33;9.83;;;2.00;99.90;;;;;;5073565;28;20198;-92
2020/12/02 11:13:57;;;;;;;22.07;11.83;;;1.90;99.90;;;;;;5059760;28;20444;-93
2020/12/02 11:16:32;;;;;;;17.70;10.47;;;2.80;99.90;;;;;;5054595;28;20456;-93
2020/12/02 11:19:20;;;;;;;22.37;10.47;;;2.00;99.90;;;;;;5053106;28;20445;-92
2020/12/02 11:21:59;;;;;;;18.07;10.60;;;2.00;99.90;;;;;;5054660;28;20478;-94
2020/12/02 11:24:49;;;;;;;22.40;10.90;;;2.00;99.90;;;;;;5054598;28;20443;-92
2020/12/02 11:27:16;;;;;;;19.63;10.70;;;2.00;99.90;;;;;;5054602;28;20434;-94
2020/12/02 11:29:43;;;;;;;23.03;13.30;;;2.00;99.90;;;;;;5054354;28;20443;-94
2020/12/02 11:32:32;;;;;;;23.30;12.67;;;2.00;99.90;;;;;;5053006;28;20466;-92
2020/12/02 11:35:20;;;;;;;19.60;11.47;;;2.00;99.90;;;;;;5033590;28;20485;-90
2020/12/02 11:37:57;;;;;;;20.30;11.00;;;2.00;99.90;;;;;;5034268;28;20442;-93
2020/12/02 11:40:31;;;;;;;20.37;11.30;;;2.00;99.90;;;;;;5031623;28;20474;-93
2020/12/02 11:43:05;;;;;;;26.20;14.00;;;1.80;99.90;;;;;;5009572;28;20502;-90
2020/12/02 11:45:36;;;;;;;21.33;12.10;;;1.90;99.90;;;;;;5014079;28;20450;-91
2020/12/02 11:48:15;;;;;;;20.03;11.90;;;2.00;99.90;;;;;;5028261;28;20450;-93
2020/12/02 11:50:47;;;;;;;24.80;12.93;;;1.90;99.90;;;;;;5033645;28;20922;-93
2020/12/02 11:53:44;;;;;;;20.33;12.30;;;2.00;99.90;;;;;;5034195;28;20930;-92
2020/12/02 11:56:15;;;;;;;20.60;11.93;;;1.90;99.90;;;;;;5029152;28;21000;-92
2020/12/02 11:58:44;;;;;;;24.30;13.07;;;2.00;99.90;;;;;;5033942;28;20458;-91
2020/12/02 12:01:21;;;;;;;26.27;13.87;;;2.00;99.90;;;;;;5034701;28;20443;-95
2020/12/02 12:03:54;;;;;;;23.57;12.63;;;2.00;99.90;;;;;;5033909;28;20488;-95
2020/12/02 12:06:24;;;;;;;24.23;13.80;;;2.00;99.90;;;;;;5034211;28;20989;-93
2020/12/02 12:09:00;;;;;;;26.73;13.60;;;2.00;99.90;;;;;;5030071;28;20462;-91
2020/12/02 12:11:38;;;;;;;24.60;11.70;;;2.00;99.90;;;;;;5034758;28;20441;-94
2020/12/02 12:14:11;;;;;;;24.37;11.70;;;1.80;99.90;;;;;;5035752;28;20819;-88
2020/12/02 12:16:45;;;;;;;20.87;11.03;;;2.00;99.90;;;;;;5039016;28;20442;-87
2020/12/02 12:19:20;;;;;;;20.00;11.37;;;2.00;99.90;;;;;;5032877;28;20455;-89
2020/12/02 12:22:14;;;;;;;22.57;11.87;;;1.90;99.90;;;;;;5030910;28;20486;-90
2020/12/02 12:24:44;;;;;;;19.13;11.83;;;1.90;99.90;;;;;;5032763;28;20482;-87
2020/12/02 12:27:13;;;;;;;14.77;8.23;;;1.90;99.90;;;;;;5033273;28;20447;-89
2020/12/02 12:29:39;;;;;;;22.63;12.70;;;1.90;99.90;;;;;;5033134;28;20466;-89
2020/12/02 12:32:10;;;;;;;22.03;12.27;;;1.90;99.90;;;;;;5033119;28;20443;-90
2020/12/02 12:34:44;;;;;;;22.90;12.07;;;1.90;99.90;;;;;;5029160;28;20443;-86
2020/12/02 12:37:18;;;;;;;22.60;13.40;;;1.90;99.90;;;;;;5033597;28;20815;-87
2020/12/02 12:39:48;;;;;;;24.57;12.40;;;1.80;99.90;;;;;;5033169;28;20486;-89
2020/12/02 12:42:21;;;;;;;24.27;14.70;;;1.70;99.90;;;;;;5037594;28;20517;-86
2020/12/02 12:44:47;;;;;;;23.50;14.40;;;1.70;99.90;;;;;;5040431;28;20810;-86
2020/12/02 12:47:22;;;;;;;23.00;13.07;;;1.80;99.90;;;;;;5033156;28;20454;-89
2020/12/02 12:49:49;;;;;;;26.10;17.40;;;1.80;99.90;;;;;;5031444;28;20447;-88
2020/12/02 12:52:20;;;;;;;24.07;14.53;;;1.80;99.90;;;;;;5032552;28;20441;-83
2020/12/02 12:54:47;;;;;;;19.80;12.87;;;1.80;99.90;;;;;;5032535;28;20456;-87
2020/12/02 12:57:15;;;;;;;23.70;11.90;;;1.70;99.90;;;;;;5033860;28;20450;-86
2020/12/02 12:59:42;;;;;;;27.53;16.37;;;1.70;99.90;;;;;;5036958;28;20450;-85
2020/12/02 13:02:18;;;;;;;25.73;13.03;;;1.70;99.90;;;;;;5036404;28;20483;-89
2020/12/02 13:04:44;;;;;;;31.53;14.47;;;1.70;99.90;;;;;;5034756;28;20455;-85
2020/12/02 13:07:20;;;;;;;27.60;15.43;;;1.70;99.90;;;;;;5037139;28;20478;-85
2020/12/02 13:10:03;;;;;;;26.03;13.03;;;1.50;99.90;;;;;;5036111;28;20458;-85